Time;durP1;ratioP1;P1;durP2;ratioP2;P2;SDS_P1;SDS_P2;PMS_P1;PMS_P2;Temp;Humidity;BMP_temperature;BMP_pressure;BME280_temperature;BME280_humidity;BME280_pressure;Samples;Min_cycle;Max_cycle;Signal;HPM_P1;HPM_P2
2022/09/21 00:01:03;;;;;;;;;;;10.50;99.90;;;;;;4178720;28;19932;-57
2022/09/21 00:03:23;;;;;;;;;;;10.60;99.90;;;;;;4178910;28;19936;-57
2022/09/21 00:05:44;;;;;;;;;;;10.50;99.90;;;;;;4178797;28;20043;-58
2022/09/21 00:08:05;;;;;;;;;;;10.40;99.90;;;;;;4178964;28;19931;-58
2022/09/21 00:10:26;;;;;;;;;;;10.30;99.90;;;;;;4178818;28;20446;-57
2022/09/21 00:12:47;;;;;;;;;;;10.00;99.90;;;;;;4179540;28;20307;-57
2022/09/21 00:15:09;;;;;;;;;;;10.10;99.90;;;;;;4182438;28;20343;-57
2022/09/21 00:17:29;;;;;;;;;;;10.20;99.90;;;;;;4181612;28;19981;-56
2022/09/21 00:19:49;;;;;;;;;;;10.20;99.90;;;;;;4182145;28;20422;-56
2022/09/21 00:22:10;;;;;;;;;;;10.20;99.90;;;;;;4182220;28;19947;-56
2022/09/21 00:24:30;;;;;;;;;;;10.10;99.90;;;;;;4182336;28;19936;-56
2022/09/21 00:26:50;;;;;;;;;;;10.20;99.90;;;;;;4182005;28;20361;-57
2022/09/21 00:29:11;;;;;;;;;;;10.20;99.90;;;;;;4187895;28;19935;-56
2022/09/21 00:31:32;;;;;;;;;;;10.10;99.90;;;;;;4182037;28;19931;-58
2022/09/21 00:33:52;;;;;;;;;;;9.90;99.90;;;;;;4167075;28;19937;-58
2022/09/21 00:36:15;;;;;;;;;;;9.80;99.90;;;;;;4181512;28;20299;-58
2022/09/21 00:38:36;;;;;;;;;;;9.80;99.90;;;;;;4166573;28;19995;-57
2022/09/21 00:40:56;;;;;;;;;;;9.90;99.90;;;;;;4194686;28;19931;-58
2022/09/21 00:43:17;;;;;;;;;;;9.90;99.90;;;;;;4183701;28;20355;-57
2022/09/21 00:45:38;;;;;;;;;;;10.00;99.90;;;;;;4181627;28;19986;-57
2022/09/21 00:47:58;;;;;;;;;;;9.90;99.90;;;;;;4193112;28;20370;-57
2022/09/21 00:50:20;;;;;;;;;;;9.90;99.90;;;;;;4181907;28;20418;-57
2022/09/21 00:52:42;;;;;;;;;;;9.80;99.90;;;;;;4181562;28;19955;-57
2022/09/21 00:55:06;;;;;;;;;;;9.70;99.90;;;;;;4181614;28;20023;-57
2022/09/21 00:57:29;;;;;;;;;;;9.50;99.90;;;;;;4181631;28;19931;-57
2022/09/21 00:59:53;;;;;;;;;;;9.40;99.90;;;;;;4181510;28;20426;-56
2022/09/21 01:02:14;;;;;;;;;;;9.30;99.90;;;;;;4181390;28;19940;-58
2022/09/21 01:04:36;;;;;;;;;;;9.20;99.90;;;;;;4181099;28;20500;-57
2022/09/21 01:06:58;;;;;;;;;;;9.20;99.90;;;;;;4181374;28;19951;-57
2022/09/21 01:09:19;;;;;;;;;;;9.30;99.90;;;;;;4181639;28;19931;-57
2022/09/21 01:11:47;;;;;;;;;;;9.40;99.90;;;;;;4181573;28;19975;-57
2022/09/21 01:14:16;;;;;;;;;;;9.30;99.90;;;;;;4181301;28;19986;-57
2022/09/21 01:16:37;;;;;;;;;;;9.40;99.90;;;;;;4181168;28;19974;-57
2022/09/21 01:19:16;;;;;;;;;;;9.30;99.90;;;;;;4181365;28;19931;-58
2022/09/21 01:21:45;;;;;;;;;;;9.30;99.90;;;;;;4180987;28;19931;-57
2022/09/21 01:24:20;;;;;;;;;;;9.10;99.90;;;;;;4180848;28;19964;-57
2022/09/21 01:27:02;;;;;;;;;;;9.10;99.90;;;;;;4180970;28;19982;-58
2022/09/21 01:29:42;;;;;;;;;;;9.10;99.90;;;;;;4181146;28;20403;-60
2022/09/21 01:32:05;;;;;;;;;;;9.00;99.90;;;;;;4180803;28;19935;-60
2022/09/21 01:34:32;;;;;;;;;;;9.10;99.90;;;;;;4181187;28;20024;-60
2022/09/21 01:36:54;;;;;;;;;;;9.10;99.90;;;;;;4180792;28;19948;-60
2022/09/21 01:39:15;;;;;;;;;;;9.00;99.90;;;;;;4180683;28;19935;-59
2022/09/21 01:41:38;;;;;;;;;;;9.00;99.90;;;;;;4180914;28;19931;-60
2022/09/21 01:44:07;;;;;;;;;;;9.00;99.90;;;;;;4180739;28;19935;-60
2022/09/21 01:46:29;;;;;;;;;;;9.10;99.90;;;;;;4180627;28;19931;-60
2022/09/21 01:48:52;;;;;;;;;;;9.10;99.90;;;;;;4180608;28;20341;-60
2022/09/21 01:51:14;;;;;;;;;;;9.10;99.90;;;;;;4180536;28;19939;-59
2022/09/21 01:53:51;;;;;;;;;;;9.10;99.90;;;;;;4180444;28;19975;-59
2022/09/21 01:56:19;;;;;;;;;;;9.20;99.90;;;;;;4180609;28;20029;-60
2022/09/21 01:58:51;;;;;;;;;;;9.10;99.90;;;;;;4180324;28;19978;-58
2022/09/21 02:01:14;;;;;;;;;;;9.00;99.90;;;;;;4180556;28;19932;-59
2022/09/21 02:03:40;;;;;;;;;;;8.90;99.90;;;;;;4180572;28;20028;-60
2022/09/21 02:06:01;;;;;;;;;;;8.90;99.90;;;;;;4180693;28;19935;-60
2022/09/21 02:08:22;;;;;;;;;;;8.90;99.90;;;;;;4180403;28;19932;-59
2022/09/21 02:10:46;;;;;;;;;;;8.90;99.90;;;;;;4180529;28;19970;-60
2022/09/21 02:13:07;;;;;;;;;;;8.90;99.90;;;;;;4180431;28;19970;-59
2022/09/21 02:15:31;;;;;;;;;;;8.90;99.90;;;;;;4180419;28;20373;-59
2022/09/21 02:18:04;;;;;;;;;;;8.90;99.90;;;;;;4180385;28;19971;-59
2022/09/21 02:20:34;;;;;;;;;;;8.60;99.90;;;;;;4179957;28;19971;-59
2022/09/21 02:23:20;;;;;;;;;;;8.70;99.90;;;;;;4196834;28;20380;-59
2022/09/21 02:25:58;;;;;;;;;;;8.80;99.90;;;;;;4180120;28;19974;-60
2022/09/21 02:28:33;;;;;;;;;;;8.70;99.90;;;;;;4180184;28;19936;-59
2022/09/21 02:31:09;;;;;;;;;;;8.70;99.90;;;;;;4179670;28;19983;-59
2022/09/21 02:33:33;;;;;;;;;;;8.70;99.90;;;;;;4180139;28;19947;-59
2022/09/21 02:36:14;;;;;;;;;;;8.70;99.90;;;;;;4179573;28;19935;-59
2022/09/21 02:38:36;;;;;;;;;;;8.60;99.90;;;;;;4164524;28;20379;-59
2022/09/21 02:40:56;;;;;;;;;;;8.60;99.90;;;;;;4179726;28;20350;-59
2022/09/21 02:43:20;;;;;;;;;;;8.50;99.90;;;;;;4164985;28;19951;-59
2022/09/21 02:45:44;;;;;;;;;;;8.50;99.90;;;;;;4180121;28;20047;-58
2022/09/21 02:48:11;;;;;;;;;;;8.40;99.90;;;;;;4192512;28;19935;-59
2022/09/21 02:50:40;;;;;;;;;;;8.30;99.90;;;;;;4196425;28;19954;-59
2022/09/21 02:53:01;;;;;;;;;;;8.40;99.90;;;;;;4196220;28;19974;-58
2022/09/21 02:55:22;;;;;;;;;;;8.30;99.90;;;;;;4196236;28;19935;-60
2022/09/21 02:57:44;;;;;;;;;;;8.20;99.90;;;;;;4196274;28;20392;-60
2022/09/21 03:00:05;;;;;;;;;;;8.10;99.90;;;;;;4196370;28;20417;-59
2022/09/21 03:02:34;;;;;;;;;;;8.00;99.90;;;;;;4195946;28;19974;-59
2022/09/21 03:04:55;;;;;;;;;;;7.90;99.90;;;;;;4195774;28;20395;-59
2022/09/21 03:07:16;;;;;;;;;;;7.80;99.90;;;;;;4196295;28;19931;-59
2022/09/21 03:09:36;;;;;;;;;;;7.80;99.90;;;;;;4195888;28;19975;-58
2022/09/21 03:11:56;;;;;;;;;;;7.80;99.90;;;;;;4196203;28;19974;-59
2022/09/21 03:14:18;;;;;;;;;;;7.80;99.90;;;;;;4195512;28;20461;-58
2022/09/21 03:16:38;;;;;;;;;;;7.80;99.90;;;;;;4195808;28;19931;-59
2022/09/21 03:18:58;;;;;;;;;;;7.90;99.90;;;;;;4179009;28;19932;-58
2022/09/21 03:21:18;;;;;;;;;;;7.90;99.90;;;;;;4179165;28;19983;-59
2022/09/21 03:23:39;;;;;;;;;;;7.80;99.90;;;;;;4179122;28;19963;-59
2022/09/21 03:26:00;;;;;;;;;;;7.90;99.90;;;;;;4179510;28;19982;-59
2022/09/21 03:28:20;;;;;;;;;;;7.90;99.90;;;;;;4179324;28;20304;-58
2022/09/21 03:30:41;;;;;;;;;;;8.00;99.90;;;;;;4178960;28;19932;-59
2022/09/21 03:33:04;;;;;;;;;;;7.90;99.90;;;;;;4179321;28;20408;-58
2022/09/21 03:35:25;;;;;;;;;;;7.90;99.90;;;;;;4178583;28;20395;-59
2022/09/21 03:37:46;;;;;;;;;;;7.90;99.90;;;;;;4179193;28;20540;-59
2022/09/21 03:40:06;;;;;;;;;;;7.80;99.90;;;;;;4179150;28;19932;-59
2022/09/21 03:42:27;;;;;;;;;;;7.90;99.90;;;;;;4179315;28;19931;-58
2022/09/21 03:44:47;;;;;;;;;;;7.80;99.90;;;;;;4178798;28;19979;-59
2022/09/21 03:47:07;;;;;;;;;;;7.90;99.90;;;;;;4183756;28;20359;-59
2022/09/21 03:49:28;;;;;;;;;;;7.80;99.90;;;;;;4188187;28;20422;-59
2022/09/21 03:51:48;;;;;;;;;;;7.80;99.90;;;;;;4179477;28;20012;-59
2022/09/21 03:54:09;;;;;;;;;;;7.80;99.90;;;;;;4179344;28;19990;-59
2022/09/21 03:56:29;;;;;;;;;;;7.80;99.90;;;;;;4163856;28;19948;-59
2022/09/21 03:58:50;;;;;;;;;;;7.80;99.90;;;;;;4178794;28;20032;-58
2022/09/21 04:01:10;;;;;;;;;;;7.70;99.90;;;;;;4179022;28;20016;-58
2022/09/21 04:03:30;;;;;;;;;;;7.70;99.90;;;;;;4178712;28;20016;-57
2022/09/21 04:05:51;;;;;;;;;;;7.70;99.90;;;;;;4178693;28;20011;-59
2022/09/21 04:08:11;;;;;;;;;;;7.70;99.90;;;;;;4178962;28;20016;-59
2022/09/21 04:10:32;;;;;;;;;;;7.70;99.90;;;;;;4178898;28;20403;-59
2022/09/21 04:12:56;;;;;;;;;;;7.70;99.90;;;;;;4178687;28;19936;-59
2022/09/21 04:15:20;;;;;;;;;;;7.60;99.90;;;;;;4179165;28;19982;-59
2022/09/21 04:18:04;;;;;;;;;;;7.60;99.90;;;;;;4179076;28;19975;-58
2022/09/21 04:20:25;;;;;;;;;;;7.60;99.90;;;;;;4143919;28;19937;-58
2022/09/21 04:22:46;;;;;;;;;;;7.70;99.90;;;;;;4143988;28;19932;-58
2022/09/21 04:25:06;;;;;;;;;;;7.70;99.90;;;;;;4149015;28;20022;-58
2022/09/21 04:27:28;;;;;;;;;;;7.70;99.90;;;;;;4151326;28;19931;-59
2022/09/21 04:29:48;;;;;;;;;;;7.70;99.90;;;;;;4160302;28;19999;-59
2022/09/21 04:32:09;;;;;;;;;;;7.70;99.90;;;;;;4143813;28;20301;-59
2022/09/21 04:34:30;;;;;;;;;;;7.60;99.90;;;;;;4154143;28;19964;-58
2022/09/21 04:36:52;;;;;;;;;;;7.60;99.90;;;;;;4160139;28;20036;-59
2022/09/21 04:39:13;;;;;;;;;;;7.60;99.90;;;;;;4160308;28;20423;-58
2022/09/21 04:41:33;;;;;;;;;;;7.40;99.90;;;;;;4159895;28;20004;-58
2022/09/21 04:43:53;;;;;;;;;;;7.50;99.90;;;;;;4159912;28;19987;-57
2022/09/21 04:46:15;;;;;;;;;;;7.40;99.90;;;;;;4151577;28;20321;-58
2022/09/21 04:48:35;;;;;;;;;;;7.40;99.90;;;;;;4144348;28;19932;-58
2022/09/21 04:50:56;;;;;;;;;;;7.40;99.90;;;;;;4157739;28;19936;-58
2022/09/21 04:53:16;;;;;;;;;;;7.40;99.90;;;;;;4158256;28;19931;-59
2022/09/21 04:55:37;;;;;;;;;;;7.30;99.90;;;;;;4160063;28;19935;-58
2022/09/21 04:57:58;;;;;;;;;;;7.40;99.90;;;;;;4176193;28;19932;-59
2022/09/21 05:00:19;;;;;;;;;;;7.50;99.90;;;;;;4191437;28;19987;-57
2022/09/21 05:02:40;;;;;;;;;;;7.60;99.90;;;;;;4192024;28;20418;-58
2022/09/21 05:05:00;;;;;;;;;;;7.70;99.90;;;;;;4181565;28;19931;-59
2022/09/21 05:07:20;;;;;;;;;;;7.70;99.90;;;;;;4181100;28;20447;-58
2022/09/21 05:12:20;;;;;;;;;;;7.60;99.90;;;;;;4190968;28;19935;-58
2022/09/21 05:14:42;;;;;;;;;;;7.50;99.90;;;;;;4181490;28;19932;-58
2022/09/21 05:17:03;;;;;;;;;;;7.40;99.90;;;;;;4181220;28;19966;-58
2022/09/21 05:19:23;;;;;;;;;;;7.30;99.90;;;;;;4182993;28;20012;-58
2022/09/21 05:21:45;;;;;;;;;;;7.30;99.90;;;;;;4181422;28;19935;-58
2022/09/21 05:24:05;;;;;;;;;;;7.10;99.90;;;;;;4165428;28;19968;-57
2022/09/21 05:26:26;;;;;;;;;;;7.10;99.90;;;;;;4182359;28;20450;-58
2022/09/21 05:28:46;;;;;;;;;;;7.20;99.90;;;;;;4186416;28;20436;-58
2022/09/21 05:31:16;;;;;;;;;;;7.30;99.90;;;;;;4180923;28;19975;-58
2022/09/21 05:33:39;;;;;;;;;;;7.20;99.90;;;;;;4181050;28;19936;-58
2022/09/21 05:36:10;;;;;;;;;;;7.20;99.90;;;;;;4180803;28;19975;-57
2022/09/21 05:38:31;;;;;;;;;;;7.20;99.90;;;;;;4181079;28;19979;-58
2022/09/21 05:40:51;;;;;;;;;;;7.20;99.90;;;;;;4181061;28;19932;-58
2022/09/21 05:43:12;;;;;;;;;;;7.20;99.90;;;;;;4180911;28;19932;-59
2022/09/21 05:45:33;;;;;;;;;;;7.20;99.90;;;;;;4180519;28;20498;-57
2022/09/21 05:48:11;;;;;;;;;;;7.30;99.90;;;;;;4181117;28;19936;-58
2022/09/21 05:50:32;;;;;;;;;;;7.40;99.90;;;;;;4180784;28;19951;-59
2022/09/21 05:52:55;;;;;;;;;;;7.50;99.90;;;;;;4181613;28;19936;-57
2022/09/21 05:55:25;;;;;;;;;;;7.50;99.90;;;;;;4192440;28;19931;-59
2022/09/21 05:57:51;;;;;;;;;;;7.60;99.90;;;;;;4187063;28;19935;-59
2022/09/21 06:00:15;;;;;;;;;;;7.60;99.90;;;;;;4189679;28;19936;-58
2022/09/21 06:02:54;;;;;;;;;;;7.60;99.90;;;;;;4185177;28;19951;-59
2022/09/21 06:05:14;;;;;;;;;;;7.60;99.90;;;;;;4195657;28;19974;-58
2022/09/21 06:07:35;;;;;;;;;;;7.70;99.90;;;;;;4180186;28;20270;-58
2022/09/21 06:09:55;;;;;;;;;;;7.80;99.90;;;;;;4179981;28;20044;-57
2022/09/21 06:12:15;;;;;;;;;;;7.90;99.90;;;;;;4180112;28;19975;-58
2022/09/21 06:14:36;;;;;;;;;;;8.00;99.90;;;;;;4180628;28;19935;-58
2022/09/21 06:16:56;;;;;;;;;;;8.10;99.90;;;;;;4180395;28;19931;-58
2022/09/21 06:19:17;;;;;;;;;;;8.20;99.90;;;;;;4180446;28;20379;-59
2022/09/21 06:21:37;;;;;;;;;;;8.30;99.90;;;;;;4180167;28;19975;-58
2022/09/21 06:23:58;;;;;;;;;;;8.40;99.90;;;;;;4179965;28;20291;-58
2022/09/21 06:26:18;;;;;;;;;;;8.40;99.90;;;;;;4179872;28;20461;-59
2022/09/21 06:28:38;;;;;;;;;;;8.30;99.90;;;;;;4180105;28;20027;-59
2022/09/21 06:30:59;;;;;;;;;;;8.40;99.90;;;;;;4179886;28;19940;-58
2022/09/21 06:33:22;;;;;;;;;;;8.50;99.90;;;;;;4180490;28;19935;-58
2022/09/21 06:35:42;;;;;;;;;;;8.50;99.90;;;;;;4180022;28;19932;-58
2022/09/21 06:38:04;;;;;;;;;;;8.70;99.90;;;;;;4180037;28;19971;-58
2022/09/21 06:40:26;;;;;;;;;;;8.80;99.90;;;;;;4165025;28;19940;-58
2022/09/21 06:42:47;;;;;;;;;;;9.00;99.90;;;;;;4180152;28;20300;-59
2022/09/21 06:45:07;;;;;;;;;;;9.10;99.90;;;;;;4179836;28;19978;-59
2022/09/21 06:47:27;;;;;;;;;;;9.10;99.90;;;;;;4169995;28;19932;-58
2022/09/21 06:49:48;;;;;;;;;;;9.30;99.90;;;;;;4179804;28;20315;-59
2022/09/21 06:52:08;;;;;;;;;;;9.50;99.90;;;;;;4179497;28;20391;-59
2022/09/21 06:54:29;;;;;;;;;;;9.60;99.90;;;;;;4186915;28;19934;-59
2022/09/21 06:56:49;;;;;;;;;;;9.60;99.90;;;;;;4196073;28;19978;-59
2022/09/21 06:59:09;;;;;;;;;;;9.70;99.90;;;;;;4179552;28;20303;-59
2022/09/21 07:01:30;;;;;;;;;;;9.80;99.90;;;;;;4179203;28;19947;-58
2022/09/21 07:03:51;;;;;;;;;;;9.90;99.90;;;;;;4190376;28;19935;-58
2022/09/21 07:06:13;;;;;;;;;;;10.00;99.90;;;;;;4179417;28;20034;-59
2022/09/21 07:08:34;;;;;;;;;;;10.20;99.90;;;;;;4179295;28;19974;-59
2022/09/21 07:11:15;;;;;;;;;;;10.20;99.90;;;;;;4179333;28;19979;-58
2022/09/21 07:13:35;;;;;;;;;;;10.30;99.90;;;;;;4179182;28;19939;-59
2022/09/21 07:15:55;;;;;;;;;;;10.30;99.90;;;;;;4179691;28;19935;-58
2022/09/21 07:18:16;;;;;;;;;;;10.50;99.90;;;;;;4179094;28;19935;-59
2022/09/21 07:20:36;;;;;;;;;;;10.80;99.90;;;;;;4178970;28;20406;-60
2022/09/21 07:22:56;;;;;;;;;;;11.30;99.90;;;;;;4178993;28;20014;-59
2022/09/21 07:25:17;;;;;;;;;;;11.60;99.90;;;;;;4179227;28;20007;-59
2022/09/21 07:27:37;;;;;;;;;;;11.90;99.90;;;;;;4179463;28;19935;-60
2022/09/21 07:29:57;;;;;;;;;;;12.10;99.90;;;;;;4179287;28;20019;-58
2022/09/21 07:32:18;;;;;;;;;;;12.40;99.90;;;;;;4179378;28;20390;-58
2022/09/21 07:34:39;;;;;;;;;;;12.50;99.90;;;;;;4178933;28;20300;-59
2022/09/21 07:36:59;;;;;;;;;;;12.70;99.90;;;;;;4179082;28;20434;-59
2022/09/21 07:39:19;;;;;;;;;;;12.80;99.90;;;;;;4179141;28;19978;-60
2022/09/21 07:41:39;;;;;;;;;;;12.90;99.90;;;;;;4178932;28;20275;-60
2022/09/21 07:44:00;;;;;;;;;;;12.90;99.90;;;;;;4179474;28;19936;-60
2022/09/21 07:46:20;;;;;;;;;;;12.70;99.90;;;;;;4179146;28;19944;-60
2022/09/21 07:48:40;;;;;;;;;;;12.70;99.90;;;;;;4179196;28;20014;-58
2022/09/21 07:51:05;;;;;;;;;;;12.60;99.90;;;;;;4179309;28;19931;-59
2022/09/21 07:53:26;;;;;;;;;;;12.50;99.90;;;;;;4179168;28;20104;-59
2022/09/21 07:55:46;;;;;;;;;;;12.50;99.90;;;;;;4178734;28;19949;-60
2022/09/21 08:00:46;;;;;;;;;;;12.50;99.90;;;;;;4194337;28;20031;-60
2022/09/21 08:03:06;;;;;;;;;;;12.60;99.90;;;;;;4179099;28;19932;-59
2022/09/21 08:05:27;;;;;;;;;;;12.80;99.90;;;;;;4178691;28;20308;-59
2022/09/21 08:07:47;;;;;;;;;;;13.40;99.90;;;;;;4178480;28;19932;-60
2022/09/21 08:10:08;;;;;;;;;;;14.00;99.90;;;;;;4178635;28;20012;-59
2022/09/21 08:12:28;;;;;;;;;;;14.90;99.90;;;;;;4179270;28;19936;-59
2022/09/21 08:14:48;;;;;;;;;;;15.20;99.90;;;;;;4178888;28;19931;-60
2022/09/21 08:17:09;;;;;;;;;;;15.10;99.90;;;;;;4178791;28;19979;-60
2022/09/21 08:19:29;;;;;;;;;;;15.20;99.90;;;;;;4178980;28;20039;-60
2022/09/21 08:21:50;;;;;;;;;;;15.20;99.90;;;;;;4179182;28;19974;-59
2022/09/21 08:24:15;;;;;;;;;;;15.30;99.90;;;;;;4178289;28;19943;-60
2022/09/21 08:26:36;;;;;;;;;;;15.70;99.90;;;;;;4178439;28;19972;-60
2022/09/21 08:28:57;;;;;;;;;;;15.90;99.90;;;;;;4178887;28;19975;-59
2022/09/21 08:31:19;;;;;;;;;;;16.10;99.90;;;;;;4179142;28;20415;-60
2022/09/21 08:33:40;;;;;;;;;;;16.20;99.90;;;;;;4178721;28;20339;-60
2022/09/21 08:36:00;;;;;;;;;;;16.30;99.90;;;;;;4180782;28;19948;-61
2022/09/21 08:38:21;;;;;;;;;;;16.40;99.90;;;;;;4182100;28;19935;-59
2022/09/21 08:40:42;;;;;;;;;;;16.30;99.90;;;;;;4181482;28;20035;-60
2022/09/21 08:43:06;;;;;;;;;;;16.20;99.90;;;;;;4181875;28;20016;-56
2022/09/21 08:45:31;;;;;;;;;;;16.40;99.90;;;;;;4181359;28;20038;-58
2022/09/21 08:47:59;;;;;;;;;;;16.50;99.90;;;;;;4192697;28;20279;-58
2022/09/21 08:50:35;;;;;;;;;;;16.60;99.90;;;;;;4182155;28;19932;-58
2022/09/21 08:53:02;;;;;;;;;;;16.70;99.90;;;;;;4181720;28;19935;-56
2022/09/21 08:55:23;;;;;;;;;;;17.00;99.90;;;;;;4185308;28;20442;-58
2022/09/21 08:57:43;;;;;;;;;;;17.20;99.90;;;;;;4181844;28;19935;-58
2022/09/21 09:00:06;;;;;;;;;;;17.10;99.90;;;;;;4181842;28;19932;-58
2022/09/21 09:02:47;;;;;;;;;;;17.40;99.90;;;;;;4181478;28;19935;-57
2022/09/21 09:05:10;;;;;;;;;;;17.50;99.90;;;;;;4158104;28;19932;-57
2022/09/21 09:07:30;;;;;;;;;;;17.60;99.90;;;;;;4181547;28;19935;-58
2022/09/21 09:09:57;;;;;;;;;;;17.50;99.90;;;;;;4181206;28;20300;-58
2022/09/21 09:12:22;;;;;;;;;;;17.40;99.90;;;;;;4181225;28;19932;-58
2022/09/21 09:14:52;;;;;;;;;;;17.60;99.90;;;;;;4180888;28;20450;-57
2022/09/21 09:17:21;;;;;;;;;;;17.60;99.90;;;;;;4181311;28;19935;-57
2022/09/21 09:19:49;;;;;;;;;;;17.80;99.90;;;;;;4181376;28;19932;-57
2022/09/21 09:22:11;;;;;;;;;;;17.90;99.90;;;;;;4181452;28;19939;-57
2022/09/21 09:24:32;;;;;;;;;;;18.30;99.90;;;;;;4181330;28;19935;-57
2022/09/21 09:26:56;;;;;;;;;;;18.40;99.90;;;;;;4180968;28;20308;-57
2022/09/21 09:29:19;;;;;;;;;;;18.40;99.90;;;;;;4180878;28;19935;-57
2022/09/21 09:31:40;;;;;;;;;;;18.60;99.90;;;;;;4180577;28;19971;-57
2022/09/21 09:34:07;;;;;;;;;;;18.40;99.90;;;;;;4180892;28;20028;-56
2022/09/21 09:36:29;;;;;;;;;;;18.50;99.50;;;;;;4180509;28;20296;-57
2022/09/21 09:39:12;;;;;;;;;;;18.70;99.00;;;;;;4169191;28;19943;-57
2022/09/21 09:41:32;;;;;;;;;;;18.70;99.50;;;;;;4165926;28;20028;-58
2022/09/21 09:44:11;;;;;;;;;;;18.40;99.30;;;;;;4180878;28;19963;-57
2022/09/21 09:46:36;;;;;;;;;;;18.30;99.10;;;;;;4180128;28;19935;-56
2022/09/21 09:49:00;;;;;;;;;;;18.60;98.70;;;;;;4197206;28;19950;-57
2022/09/21 09:51:20;;;;;;;;;;;18.70;98.00;;;;;;4186805;28;19939;-57
2022/09/21 09:53:41;;;;;;;;;;;18.80;98.70;;;;;;4185098;28;19939;-58
2022/09/21 09:56:01;;;;;;;;;;;19.10;98.00;;;;;;4180697;28;19976;-56
2022/09/21 09:58:22;;;;;;;;;;;19.10;98.10;;;;;;4180909;28;19931;-57
2022/09/21 10:00:42;;;;;;;;;;;19.10;96.70;;;;;;4181003;28;19952;-57
2022/09/21 10:03:15;;;;;;;;;;;19.10;97.70;;;;;;4180748;28;19936;-57
2022/09/21 10:05:39;;;;;;;;;;;19.50;98.00;;;;;;4180121;28;20342;-57
2022/09/21 10:08:00;;;;;;;;;;;19.60;97.10;;;;;;4180356;28;19932;-57
2022/09/21 10:10:20;;;;;;;;;;;19.70;97.10;;;;;;4180795;28;19932;-58
2022/09/21 10:12:45;;;;;;;;;;;19.50;96.50;;;;;;4180392;28;19932;-57
2022/09/21 10:15:09;;;;;;;;;;;19.50;97.70;;;;;;4180326;28;19935;-56
2022/09/21 10:17:29;;;;;;;;;;;19.60;98.40;;;;;;4180140;28;19936;-57
2022/09/21 10:20:00;;;;;;;;;;;20.10;97.30;;;;;;4179975;28;19935;-56
2022/09/21 10:22:21;;;;;;;;;;;20.00;96.20;;;;;;4179758;28;19946;-57
2022/09/21 10:24:45;;;;;;;;;;;19.60;95.80;;;;;;4164912;28;19980;-56
2022/09/21 10:27:10;;;;;;;;;;;19.30;96.50;;;;;;4180023;28;19940;-57
2022/09/21 10:29:41;;;;;;;;;;;19.20;96.60;;;;;;4180822;28;19932;-57
2022/09/21 10:32:03;;;;;;;;;;;19.30;97.00;;;;;;4182521;28;20356;-57
2022/09/21 10:34:26;;;;;;;;;;;19.30;97.00;;;;;;4183248;28;20403;-57
2022/09/21 10:36:51;;;;;;;;;;;19.50;95.80;;;;;;4186556;28;19939;-57
2022/09/21 10:39:22;;;;;;;;;;;19.70;98.20;;;;;;4186900;28;20500;-58
2022/09/21 10:41:46;;;;;;;;;;;19.40;95.10;;;;;;4181738;28;19932;-57
2022/09/21 10:44:14;;;;;;;;;;;18.90;96.40;;;;;;4182210;28;19983;-57
2022/09/21 10:46:34;;;;;;;;;;;19.00;96.60;;;;;;4183536;28;19935;-57
2022/09/21 10:48:55;;;;;;;;;;;18.90;96.20;;;;;;4186990;28;20012;-58
2022/09/21 10:51:26;;;;;;;;;;;18.90;96.60;;;;;;4183378;28;19940;-57
2022/09/21 10:53:48;;;;;;;;;;;18.90;96.60;;;;;;4182951;28;19935;-57
2022/09/21 10:56:14;;;;;;;;;;;19.10;97.00;;;;;;4184115;28;20396;-57
2022/09/21 10:58:36;;;;;;;;;;;19.20;97.00;;;;;;4179495;28;19939;-57
2022/09/21 11:01:08;;;;;;;;;;;19.60;96.30;;;;;;4181585;28;19935;-57
2022/09/21 11:03:29;;;;;;;;;;;19.60;95.60;;;;;;4182072;28;19931;-57
2022/09/21 11:05:50;;;;;;;;;;;19.00;96.00;;;;;;4179123;28;19935;-56
2022/09/21 11:08:15;;;;;;;;;;;19.30;97.20;;;;;;4179559;28;20018;-57
2022/09/21 11:10:48;;;;;;;;;;;19.60;96.10;;;;;;4189338;28;19939;-57
2022/09/21 11:13:16;;;;;;;;;;;19.90;95.90;;;;;;4187473;28;20411;-57
2022/09/21 11:15:49;;;;;;;;;;;20.30;95.80;;;;;;4183703;28;20439;-56
2022/09/21 11:18:23;;;;;;;;;;;20.10;94.80;;;;;;4180006;28;20408;-57
2022/09/21 11:20:49;;;;;;;;;;;20.30;94.90;;;;;;4167293;28;20347;-57
2022/09/21 11:23:17;;;;;;;;;;;20.50;95.40;;;;;;4179472;28;20303;-57
2022/09/21 11:25:42;;;;;;;;;;;20.50;94.30;;;;;;4184093;28;19986;-56
2022/09/21 11:28:12;;;;;;;;;;;20.30;94.40;;;;;;4185259;28;19931;-56
2022/09/21 11:30:41;;;;;;;;;;;20.40;93.60;;;;;;4182964;28;19935;-56
2022/09/21 11:33:25;;;;;;;;;;;20.60;92.60;;;;;;4179050;28;20395;-57
2022/09/21 11:35:46;;;;;;;;;;;20.70;93.80;;;;;;4178443;28;19940;-57
2022/09/21 11:38:11;;;;;;;;;;;20.20;92.40;;;;;;4178781;28;19932;-57
2022/09/21 11:40:52;;;;;;;;;;;20.40;93.10;;;;;;4181799;28;19978;-58
2022/09/21 11:43:20;;;;;;;;;;;20.60;93.10;;;;;;4177856;28;19967;-58
2022/09/21 11:46:00;;;;;;;;;;;20.90;94.10;;;;;;4178335;28;20034;-58
2022/09/21 11:48:26;;;;;;;;;;;21.00;91.50;;;;;;4182995;28;19936;-59
2022/09/21 11:51:07;;;;;;;;;;;21.20;92.20;;;;;;4179319;28;19982;-58
2022/09/21 11:53:37;;;;;;;;;;;21.40;91.80;;;;;;4182412;28;19935;-58
2022/09/21 11:56:10;;;;;;;;;;;21.40;91.70;;;;;;4184840;28;19975;-58
2022/09/21 11:58:45;;;;;;;;;;;21.40;91.50;;;;;;4179470;28;19935;-58
2022/09/21 12:01:06;;;;;;;;;;;21.10;91.70;;;;;;4178902;28;19931;-58
2022/09/21 12:03:45;;;;;;;;;;;20.60;91.50;;;;;;4163823;28;20028;-59
2022/09/21 12:06:25;;;;;;;;;;;20.40;92.00;;;;;;4178469;28;20444;-58
2022/09/21 12:08:54;;;;;;;;;;;20.90;92.70;;;;;;4179435;28;20098;-58
2022/09/21 12:11:30;;;;;;;;;;;21.00;90.70;;;;;;4183105;28;19935;-58
2022/09/21 12:14:06;;;;;;;;;;;21.30;90.80;;;;;;4181550;28;20400;-58
2022/09/21 12:16:36;;;;;;;;;;;21.20;91.00;;;;;;4182124;28;19967;-58
2022/09/21 12:18:56;;;;;;;;;;;21.10;90.20;;;;;;4187421;28;20014;-58
2022/09/21 12:21:43;;;;;;;;;;;21.20;90.40;;;;;;4186937;28;19974;-58
2022/09/21 12:24:11;;;;;;;;;;;21.40;90.60;;;;;;4181413;28;20020;-59
2022/09/21 12:26:47;;;;;;;;;;;21.20;90.90;;;;;;4166446;28;19936;-58
2022/09/21 12:29:18;;;;;;;;;;;21.40;91.30;;;;;;4166286;28;19936;-59
2022/09/21 12:31:42;;;;;;;;;;;21.60;91.10;;;;;;4182167;28;19952;-56
2022/09/21 12:34:07;;;;;;;;;;;21.90;91.20;;;;;;4181861;28;20017;-57
2022/09/21 12:36:40;;;;;;;;;;;22.10;90.50;;;;;;4180130;28;19939;-56
2022/09/21 12:39:21;;;;;;;;;;;21.80;90.20;;;;;;4183413;28;20012;-57
2022/09/21 12:41:58;;;;;;;;;;;21.40;92.10;;;;;;4168657;28;19976;-56
2022/09/21 12:44:50;;;;;;;;;;;21.60;91.00;;;;;;4197671;28;19935;-58
2022/09/21 12:47:12;;;;;;;;;;;21.70;90.70;;;;;;4186503;28;19931;-56
2022/09/21 12:49:32;;;;;;;;;;;21.30;91.50;;;;;;4181839;28;20454;-57
2022/09/21 12:51:54;;;;;;;;;;;21.00;90.90;;;;;;4181281;28;19940;-56
2022/09/21 12:54:47;;;;;;;;;;;21.10;92.30;;;;;;4181583;28;19935;-57
2022/09/21 12:57:17;;;;;;;;;;;21.40;88.90;;;;;;4116769;28;19952;-57
2022/09/21 13:00:23;;;;;;;;;;;21.60;90.20;;;;;;4130156;28;20012;-55
2022/09/21 13:02:59;;;;;;;;;;;21.80;90.10;;;;;;4146449;28;20182;-56
2022/09/21 13:05:37;;;;;;;;;;;21.70;89.70;;;;;;4146107;28;20459;-57
2022/09/21 13:07:58;;;;;;;;;;;21.60;89.60;;;;;;4146188;28;19936;-58
2022/09/21 13:10:21;;;;;;;;;;;21.40;88.90;;;;;;4146312;28;20441;-57
2022/09/21 13:12:43;;;;;;;;;;;21.40;89.30;;;;;;4146657;28;19935;-57
2022/09/21 13:15:12;;;;;;;;;;;21.80;89.10;;;;;;4146115;28;19935;-57
2022/09/21 13:17:32;;;;;;;;;;;21.60;88.00;;;;;;4146621;28;19979;-57
2022/09/21 13:20:15;;;;;;;;;;;21.30;89.30;;;;;;4146086;28;19964;-58
2022/09/21 13:22:36;;;;;;;;;;;21.30;88.30;;;;;;4146226;28;20373;-57
2022/09/21 13:25:02;;;;;;;;;;;21.20;88.60;;;;;;4146130;28;20040;-57
2022/09/21 13:27:24;;;;;;;;;;;21.40;87.30;;;;;;4145801;28;20285;-57
2022/09/21 13:29:45;;;;;;;;;;;21.30;88.40;;;;;;4145804;28;19980;-56
2022/09/21 13:32:09;;;;;;;;;;;21.20;86.80;;;;;;4155051;28;20435;-56
2022/09/21 13:34:33;;;;;;;;;;;21.50;86.70;;;;;;4180737;28;19932;-57
2022/09/21 13:37:18;;;;;;;;;;;21.30;85.30;;;;;;4180631;28;19931;-56
2022/09/21 13:39:47;;;;;;;;;;;21.50;86.80;;;;;;4183488;28;19932;-57
2022/09/21 13:42:27;;;;;;;;;;;21.40;85.30;;;;;;4195154;28;19966;-57
2022/09/21 13:44:47;;;;;;;;;;;21.30;87.40;;;;;;4180692;28;20323;-57
2022/09/21 13:47:10;;;;;;;;;;;21.40;85.60;;;;;;4185590;28;19936;-57
2022/09/21 13:49:42;;;;;;;;;;;21.40;87.10;;;;;;4186459;28;20018;-57
2022/09/21 13:52:17;;;;;;;;;;;21.50;86.00;;;;;;4180638;28;20012;-58
2022/09/21 13:54:44;;;;;;;;;;;21.30;87.40;;;;;;4180163;28;19999;-57
2022/09/21 13:57:12;;;;;;;;;;;21.50;88.50;;;;;;4180740;28;20028;-57
2022/09/21 13:59:34;;;;;;;;;;;21.60;86.20;;;;;;4180157;28;19936;-56
2022/09/21 14:01:54;;;;;;;;;;;21.80;86.20;;;;;;4180184;28;19932;-57
2022/09/21 14:04:36;;;;;;;;;;;21.90;84.50;;;;;;4180370;28;19975;-57
2022/09/21 14:07:01;;;;;;;;;;;21.60;87.20;;;;;;4180172;28;19974;-57
2022/09/21 14:09:25;;;;;;;;;;;21.10;86.20;;;;;;4180032;28;19936;-57
2022/09/21 14:11:53;;;;;;;;;;;20.80;87.30;;;;;;4180251;28;20035;-58
2022/09/21 14:14:26;;;;;;;;;;;20.50;86.00;;;;;;4180497;28;19936;-57